sensor_id;sensor_type;location;lat;lon;timestamp;temperature;humidity
5392;DHT22;2719;53.624;9.786;2024-01-27T00:00:34;6.60;99.90
5392;DHT22;2719;53.624;9.786;2024-01-27T00:03:00;6.60;99.90
5392;DHT22;2719;53.624;9.786;2024-01-27T00:05:27;6.50;99.90
5392;DHT22;2719;53.624;9.786;2024-01-27T00:07:55;6.50;99.90
5392;DHT22;2719;53.624;9.786;2024-01-27T00:10:22;6.50;99.90
5392;DHT22;2719;53.624;9.786;2024-01-27T00:12:49;6.60;99.90
5392;DHT22;2719;53.624;9.786;2024-01-27T00:15:17;6.60;99.90
5392;DHT22;2719;53.624;9.786;2024-01-27T00:17:44;6.60;99.90
5392;DHT22;2719;53.624;9.786;2024-01-27T00:20:11;6.50;99.90
5392;DHT22;2719;53.624;9.786;2024-01-27T00:22:38;6.50;99.90
5392;DHT22;2719;53.624;9.786;2024-01-27T00:25:06;6.40;99.90
5392;DHT22;2719;53.624;9.786;2024-01-27T00:27:33;6.40;99.90
5392;DHT22;2719;53.624;9.786;2024-01-27T00:29:59;6.40;99.90
5392;DHT22;2719;53.624;9.786;2024-01-27T00:32:26;6.40;99.90
5392;DHT22;2719;53.624;9.786;2024-01-27T00:34:53;6.50;99.90
5392;DHT22;2719;53.624;9.786;2024-01-27T00:37:19;6.50;99.90
5392;DHT22;2719;53.624;9.786;2024-01-27T00:39:46;6.50;99.90
5392;DHT22;2719;53.624;9.786;2024-01-27T00:42:14;6.50;99.90
5392;DHT22;2719;53.624;9.786;2024-01-27T00:44:41;6.40;99.90
5392;DHT22;2719;53.624;9.786;2024-01-27T00:47:08;6.50;99.90
5392;DHT22;2719;53.624;9.786;2024-01-27T00:49:34;6.40;99.90
5392;DHT22;2719;53.624;9.786;2024-01-27T00:52:01;6.50;99.90
5392;DHT22;2719;53.624;9.786;2024-01-27T00:54:28;6.40;99.90
5392;DHT22;2719;53.624;9.786;2024-01-27T00:56:54;6.50;99.90
5392;DHT22;2719;53.624;9.786;2024-01-27T00:59:22;6.50;99.90
5392;DHT22;2719;53.624;9.786;2024-01-27T01:01:49;6.50;99.90
5392;DHT22;2719;53.624;9.786;2024-01-27T01:04:16;6.50;99.90
5392;DHT22;2719;53.624;9.786;2024-01-27T01:06:43;6.50;99.90
5392;DHT22;2719;53.624;9.786;2024-01-27T01:09:10;6.40;99.90
5392;DHT22;2719;53.624;9.786;2024-01-27T01:11:36;6.50;99.90
5392;DHT22;2719;53.624;9.786;2024-01-27T01:14:03;6.40;99.90
5392;DHT22;2719;53.624;9.786;2024-01-27T01:16:31;6.40;99.90
5392;DHT22;2719;53.624;9.786;2024-01-27T01:18:57;6.40;99.90
5392;DHT22;2719;53.624;9.786;2024-01-27T01:21:24;6.50;99.90
5392;DHT22;2719;53.624;9.786;2024-01-27T01:23:52;6.50;99.90
5392;DHT22;2719;53.624;9.786;2024-01-27T01:26:18;6.50;99.90
5392;DHT22;2719;53.624;9.786;2024-01-27T01:28:45;6.50;99.90
5392;DHT22;2719;53.624;9.786;2024-01-27T01:31:12;6.50;99.90
5392;DHT22;2719;53.624;9.786;2024-01-27T01:33:39;6.60;99.90
5392;DHT22;2719;53.624;9.786;2024-01-27T01:36:06;6.60;99.90
5392;DHT22;2719;53.624;9.786;2024-01-27T01:38:33;6.60;99.90
5392;DHT22;2719;53.624;9.786;2024-01-27T01:40:59;6.60;99.90
5392;DHT22;2719;53.624;9.786;2024-01-27T01:43:26;6.60;99.90
5392;DHT22;2719;53.624;9.786;2024-01-27T01:45:53;6.50;99.90
5392;DHT22;2719;53.624;9.786;2024-01-27T01:48:20;6.60;99.90
5392;DHT22;2719;53.624;9.786;2024-01-27T01:50:49;6.70;99.90
5392;DHT22;2719;53.624;9.786;2024-01-27T01:53:17;6.60;99.90
5392;DHT22;2719;53.624;9.786;2024-01-27T01:55:44;6.60;99.90
5392;DHT22;2719;53.624;9.786;2024-01-27T01:58:11;6.70;99.90
5392;DHT22;2719;53.624;9.786;2024-01-27T02:00:38;6.60;99.90
5392;DHT22;2719;53.624;9.786;2024-01-27T02:03:05;6.70;99.90
5392;DHT22;2719;53.624;9.786;2024-01-27T02:05:31;6.70;99.90
5392;DHT22;2719;53.624;9.786;2024-01-27T02:07:59;6.70;99.90
5392;DHT22;2719;53.624;9.786;2024-01-27T02:10:29;6.80;99.90
5392;DHT22;2719;53.624;9.786;2024-01-27T02:13:01;6.80;99.90
5392;DHT22;2719;53.624;9.786;2024-01-27T02:15:28;6.80;99.90
5392;DHT22;2719;53.624;9.786;2024-01-27T02:17:54;6.70;99.90
5392;DHT22;2719;53.624;9.786;2024-01-27T02:20:21;6.70;99.90
5392;DHT22;2719;53.624;9.786;2024-01-27T02:22:47;6.70;99.90
5392;DHT22;2719;53.624;9.786;2024-01-27T02:25:15;6.60;99.90
5392;DHT22;2719;53.624;9.786;2024-01-27T02:27:42;6.60;99.90
5392;DHT22;2719;53.624;9.786;2024-01-27T02:30:09;6.50;99.90
5392;DHT22;2719;53.624;9.786;2024-01-27T02:32:36;6.50;99.90
5392;DHT22;2719;53.624;9.786;2024-01-27T02:35:03;6.50;99.90
5392;DHT22;2719;53.624;9.786;2024-01-27T02:37:29;6.50;99.90
5392;DHT22;2719;53.624;9.786;2024-01-27T02:39:56;6.50;99.90
5392;DHT22;2719;53.624;9.786;2024-01-27T02:42:24;6.50;99.90
5392;DHT22;2719;53.624;9.786;2024-01-27T02:44:51;6.40;99.90
5392;DHT22;2719;53.624;9.786;2024-01-27T02:47:17;6.40;99.90
5392;DHT22;2719;53.624;9.786;2024-01-27T02:49:44;6.40;99.90
5392;DHT22;2719;53.624;9.786;2024-01-27T02:52:10;6.50;99.90
5392;DHT22;2719;53.624;9.786;2024-01-27T02:54:39;6.50;99.90
5392;DHT22;2719;53.624;9.786;2024-01-27T02:57:06;6.40;99.90
5392;DHT22;2719;53.624;9.786;2024-01-27T02:59:34;6.30;99.90
5392;DHT22;2719;53.624;9.786;2024-01-27T03:02:01;6.30;99.90
5392;DHT22;2719;53.624;9.786;2024-01-27T03:04:27;6.20;99.90
5392;DHT22;2719;53.624;9.786;2024-01-27T03:06:54;6.20;99.90
5392;DHT22;2719;53.624;9.786;2024-01-27T03:09:20;6.10;99.90
5392;DHT22;2719;53.624;9.786;2024-01-27T03:11:47;6.20;99.90
5392;DHT22;2719;53.624;9.786;2024-01-27T03:14:14;6.30;99.90
5392;DHT22;2719;53.624;9.786;2024-01-27T03:16:43;6.30;99.90
5392;DHT22;2719;53.624;9.786;2024-01-27T03:19:10;6.30;99.90
5392;DHT22;2719;53.624;9.786;2024-01-27T03:21:36;6.30;99.90
5392;DHT22;2719;53.624;9.786;2024-01-27T03:24:04;6.30;99.90
5392;DHT22;2719;53.624;9.786;2024-01-27T03:26:30;6.20;99.90
5392;DHT22;2719;53.624;9.786;2024-01-27T03:28:57;6.10;99.90
5392;DHT22;2719;53.624;9.786;2024-01-27T03:31:30;6.10;99.90
5392;DHT22;2719;53.624;9.786;2024-01-27T03:33:58;6.10;99.90
5392;DHT22;2719;53.624;9.786;2024-01-27T03:36:25;6.10;99.90
5392;DHT22;2719;53.624;9.786;2024-01-27T03:38:51;6.00;99.90
5392;DHT22;2719;53.624;9.786;2024-01-27T03:41:18;6.00;99.90
5392;DHT22;2719;53.624;9.786;2024-01-27T03:43:45;6.00;99.90
5392;DHT22;2719;53.624;9.786;2024-01-27T03:46:11;6.10;99.90
5392;DHT22;2719;53.624;9.786;2024-01-27T03:48:38;6.00;99.90
5392;DHT22;2719;53.624;9.786;2024-01-27T03:51:06;6.00;99.90
5392;DHT22;2719;53.624;9.786;2024-01-27T03:53:33;6.00;99.90
5392;DHT22;2719;53.624;9.786;2024-01-27T03:56:00;6.00;99.90
5392;DHT22;2719;53.624;9.786;2024-01-27T03:58:28;6.00;99.90
5392;DHT22;2719;53.624;9.786;2024-01-27T04:00:56;6.10;99.90
5392;DHT22;2719;53.624;9.786;2024-01-27T04:03:23;6.00;99.90
5392;DHT22;2719;53.624;9.786;2024-01-27T04:05:49;5.90;99.90
5392;DHT22;2719;53.624;9.786;2024-01-27T04:08:17;5.80;99.90
5392;DHT22;2719;53.624;9.786;2024-01-27T04:10:44;5.80;99.90
5392;DHT22;2719;53.624;9.786;2024-01-27T04:13:11;5.80;99.90
5392;DHT22;2719;53.624;9.786;2024-01-27T04:15:37;5.80;99.90
5392;DHT22;2719;53.624;9.786;2024-01-27T04:18:04;5.70;99.90
5392;DHT22;2719;53.624;9.786;2024-01-27T04:20:33;5.80;99.90
5392;DHT22;2719;53.624;9.786;2024-01-27T04:23:00;5.70;99.90
5392;DHT22;2719;53.624;9.786;2024-01-27T04:25:28;5.80;99.90
5392;DHT22;2719;53.624;9.786;2024-01-27T04:27:55;5.70;99.90
5392;DHT22;2719;53.624;9.786;2024-01-27T04:30:21;5.70;99.90
5392;DHT22;2719;53.624;9.786;2024-01-27T04:32:48;5.60;99.90
5392;DHT22;2719;53.624;9.786;2024-01-27T04:35:17;5.60;99.90
5392;DHT22;2719;53.624;9.786;2024-01-27T04:37:44;5.60;99.90
5392;DHT22;2719;53.624;9.786;2024-01-27T04:40:11;5.60;99.90
5392;DHT22;2719;53.624;9.786;2024-01-27T04:42:40;5.60;99.90
5392;DHT22;2719;53.624;9.786;2024-01-27T04:45:07;5.60;99.90
5392;DHT22;2719;53.624;9.786;2024-01-27T04:47:34;5.60;99.90
5392;DHT22;2719;53.624;9.786;2024-01-27T04:50:01;5.60;99.90
5392;DHT22;2719;53.624;9.786;2024-01-27T04:52:28;5.60;99.90
5392;DHT22;2719;53.624;9.786;2024-01-27T04:54:55;5.70;99.90
5392;DHT22;2719;53.624;9.786;2024-01-27T04:57:22;5.60;99.90
5392;DHT22;2719;53.624;9.786;2024-01-27T04:59:49;5.60;99.90
5392;DHT22;2719;53.624;9.786;2024-01-27T05:02:17;5.60;99.90
5392;DHT22;2719;53.624;9.786;2024-01-27T05:04:43;5.50;99.90
5392;DHT22;2719;53.624;9.786;2024-01-27T05:07:10;5.50;99.90
5392;DHT22;2719;53.624;9.786;2024-01-27T05:09:37;5.60;99.90
5392;DHT22;2719;53.624;9.786;2024-01-27T05:12:04;5.60;99.90
5392;DHT22;2719;53.624;9.786;2024-01-27T05:14:31;5.50;99.90
5392;DHT22;2719;53.624;9.786;2024-01-27T05:16:58;5.50;99.90
5392;DHT22;2719;53.624;9.786;2024-01-27T05:19:25;5.50;99.90
5392;DHT22;2719;53.624;9.786;2024-01-27T05:21:52;5.50;99.90
5392;DHT22;2719;53.624;9.786;2024-01-27T05:24:18;5.50;99.90
5392;DHT22;2719;53.624;9.786;2024-01-27T05:26:45;5.50;99.90
5392;DHT22;2719;53.624;9.786;2024-01-27T05:29:12;5.40;99.90
5392;DHT22;2719;53.624;9.786;2024-01-27T05:31:38;5.40;99.90
5392;DHT22;2719;53.624;9.786;2024-01-27T05:34:10;5.40;99.90
5392;DHT22;2719;53.624;9.786;2024-01-27T05:36:36;5.40;99.90
5392;DHT22;2719;53.624;9.786;2024-01-27T05:39:03;5.40;99.90
5392;DHT22;2719;53.624;9.786;2024-01-27T05:41:30;5.30;99.90
5392;DHT22;2719;53.624;9.786;2024-01-27T05:43:57;5.30;99.90
5392;DHT22;2719;53.624;9.786;2024-01-27T05:46:24;5.30;99.90
5392;DHT22;2719;53.624;9.786;2024-01-27T05:48:50;5.30;99.90
5392;DHT22;2719;53.624;9.786;2024-01-27T05:51:21;5.30;99.90
5392;DHT22;2719;53.624;9.786;2024-01-27T05:53:48;5.30;99.90
5392;DHT22;2719;53.624;9.786;2024-01-27T05:56:15;5.20;99.90
5392;DHT22;2719;53.624;9.786;2024-01-27T05:58:42;5.20;99.90
5392;DHT22;2719;53.624;9.786;2024-01-27T06:01:08;5.20;99.90
5392;DHT22;2719;53.624;9.786;2024-01-27T06:03:35;5.10;99.90
5392;DHT22;2719;53.624;9.786;2024-01-27T06:06:02;5.10;99.90
5392;DHT22;2719;53.624;9.786;2024-01-27T06:08:30;5.20;99.90
5392;DHT22;2719;53.624;9.786;2024-01-27T06:10:56;5.10;99.90
5392;DHT22;2719;53.624;9.786;2024-01-27T06:13:23;5.10;99.90
5392;DHT22;2719;53.624;9.786;2024-01-27T06:15:50;5.10;99.90
5392;DHT22;2719;53.624;9.786;2024-01-27T06:18:17;5.10;99.90
5392;DHT22;2719;53.624;9.786;2024-01-27T06:20:43;5.10;99.90
5392;DHT22;2719;53.624;9.786;2024-01-27T06:23:10;5.00;99.90
5392;DHT22;2719;53.624;9.786;2024-01-27T06:25:38;5.10;99.90
5392;DHT22;2719;53.624;9.786;2024-01-27T06:28:05;5.00;99.90
5392;DHT22;2719;53.624;9.786;2024-01-27T06:30:32;5.00;99.90
5392;DHT22;2719;53.624;9.786;2024-01-27T06:32:58;5.10;99.90
5392;DHT22;2719;53.624;9.786;2024-01-27T06:35:25;5.00;99.90
5392;DHT22;2719;53.624;9.786;2024-01-27T06:37:51;4.90;99.90
5392;DHT22;2719;53.624;9.786;2024-01-27T06:40:18;4.80;99.90
5392;DHT22;2719;53.624;9.786;2024-01-27T06:42:46;4.80;99.90
5392;DHT22;2719;53.624;9.786;2024-01-27T06:45:13;4.90;99.90
5392;DHT22;2719;53.624;9.786;2024-01-27T06:47:39;5.00;99.90
5392;DHT22;2719;53.624;9.786;2024-01-27T06:50:07;4.90;99.90
5392;DHT22;2719;53.624;9.786;2024-01-27T06:52:34;4.90;99.90
5392;DHT22;2719;53.624;9.786;2024-01-27T06:55:00;4.80;99.90
5392;DHT22;2719;53.624;9.786;2024-01-27T06:57:27;4.90;99.90
5392;DHT22;2719;53.624;9.786;2024-01-27T06:59:55;4.90;99.90
5392;DHT22;2719;53.624;9.786;2024-01-27T07:02:23;4.80;99.90
5392;DHT22;2719;53.624;9.786;2024-01-27T07:04:49;4.70;99.90
5392;DHT22;2719;53.624;9.786;2024-01-27T07:07:16;4.80;99.90
5392;DHT22;2719;53.624;9.786;2024-01-27T07:09:43;4.70;99.90
5392;DHT22;2719;53.624;9.786;2024-01-27T07:12:09;4.70;99.90
5392;DHT22;2719;53.624;9.786;2024-01-27T07:14:36;4.70;99.90
5392;DHT22;2719;53.624;9.786;2024-01-27T07:17:04;4.70;99.90
5392;DHT22;2719;53.624;9.786;2024-01-27T07:19:31;4.70;99.90
5392;DHT22;2719;53.624;9.786;2024-01-27T07:21:58;4.60;99.90
5392;DHT22;2719;53.624;9.786;2024-01-27T07:24:25;4.70;99.90
5392;DHT22;2719;53.624;9.786;2024-01-27T07:26:52;4.70;99.90
5392;DHT22;2719;53.624;9.786;2024-01-27T07:29:18;4.80;99.90
5392;DHT22;2719;53.624;9.786;2024-01-27T07:31:45;4.80;99.90
5392;DHT22;2719;53.624;9.786;2024-01-27T07:34:14;4.70;99.90
5392;DHT22;2719;53.624;9.786;2024-01-27T07:36:40;4.70;99.90
5392;DHT22;2719;53.624;9.786;2024-01-27T07:39:07;4.60;99.90
5392;DHT22;2719;53.624;9.786;2024-01-27T07:41:34;4.60;99.90
5392;DHT22;2719;53.624;9.786;2024-01-27T07:44:07;4.60;99.90
5392;DHT22;2719;53.624;9.786;2024-01-27T07:46:34;4.70;99.90
5392;DHT22;2719;53.624;9.786;2024-01-27T07:49:01;4.70;99.90
5392;DHT22;2719;53.624;9.786;2024-01-27T07:51:29;4.70;99.90
5392;DHT22;2719;53.624;9.786;2024-01-27T07:53:56;4.80;99.90
5392;DHT22;2719;53.624;9.786;2024-01-27T07:56:22;4.80;99.90
5392;DHT22;2719;53.624;9.786;2024-01-27T07:58:49;4.80;99.90
5392;DHT22;2719;53.624;9.786;2024-01-27T08:01:16;4.80;99.90
5392;DHT22;2719;53.624;9.786;2024-01-27T08:03:43;4.70;99.90
5392;DHT22;2719;53.624;9.786;2024-01-27T08:06:15;4.70;99.90
5392;DHT22;2719;53.624;9.786;2024-01-27T08:08:44;4.70;99.90
5392;DHT22;2719;53.624;9.786;2024-01-27T08:11:11;4.70;99.90
5392;DHT22;2719;53.624;9.786;2024-01-27T08:13:37;4.70;99.90
5392;DHT22;2719;53.624;9.786;2024-01-27T08:16:04;4.70;99.90
5392;DHT22;2719;53.624;9.786;2024-01-27T08:18:31;4.70;99.90
5392;DHT22;2719;53.624;9.786;2024-01-27T08:20:57;4.70;99.90
5392;DHT22;2719;53.624;9.786;2024-01-27T08:23:24;4.70;99.90
5392;DHT22;2719;53.624;9.786;2024-01-27T08:25:52;4.70;99.90
5392;DHT22;2719;53.624;9.786;2024-01-27T08:28:19;4.60;99.90
5392;DHT22;2719;53.624;9.786;2024-01-27T08:30:45;4.60;99.90
5392;DHT22;2719;53.624;9.786;2024-01-27T08:33:12;4.70;99.90
5392;DHT22;2719;53.624;9.786;2024-01-27T08:35:39;4.70;99.90
5392;DHT22;2719;53.624;9.786;2024-01-27T08:38:10;4.70;99.90
5392;DHT22;2719;53.624;9.786;2024-01-27T08:40:37;4.80;99.90
5392;DHT22;2719;53.624;9.786;2024-01-27T08:43:05;4.70;99.90
5392;DHT22;2719;53.624;9.786;2024-01-27T08:45:31;4.70;99.90
5392;DHT22;2719;53.624;9.786;2024-01-27T08:47:58;4.60;99.90
5392;DHT22;2719;53.624;9.786;2024-01-27T08:50:25;4.60;99.90
5392;DHT22;2719;53.624;9.786;2024-01-27T08:52:51;4.60;99.90
5392;DHT22;2719;53.624;9.786;2024-01-27T08:55:18;4.70;99.90
5392;DHT22;2719;53.624;9.786;2024-01-27T08:57:45;4.70;99.90
5392;DHT22;2719;53.624;9.786;2024-01-27T09:00:14;4.70;99.90
5392;DHT22;2719;53.624;9.786;2024-01-27T09:02:42;4.80;99.90
5392;DHT22;2719;53.624;9.786;2024-01-27T09:05:08;4.70;99.90
5392;DHT22;2719;53.624;9.786;2024-01-27T09:07:35;4.70;99.90
5392;DHT22;2719;53.624;9.786;2024-01-27T09:10:02;4.80;99.90
5392;DHT22;2719;53.624;9.786;2024-01-27T09:12:28;4.80;99.90
5392;DHT22;2719;53.624;9.786;2024-01-27T09:14:55;4.80;99.90
5392;DHT22;2719;53.624;9.786;2024-01-27T09:17:23;4.90;99.90
5392;DHT22;2719;53.624;9.786;2024-01-27T09:19:50;4.80;99.90
5392;DHT22;2719;53.624;9.786;2024-01-27T09:22:17;4.90;99.90
5392;DHT22;2719;53.624;9.786;2024-01-27T09:24:43;5.00;99.90
5392;DHT22;2719;53.624;9.786;2024-01-27T09:27:11;5.00;99.90
5392;DHT22;2719;53.624;9.786;2024-01-27T09:29:37;5.10;99.90
5392;DHT22;2719;53.624;9.786;2024-01-27T09:32:05;5.10;99.90
5392;DHT22;2719;53.624;9.786;2024-01-27T09:34:33;5.10;99.90
5392;DHT22;2719;53.624;9.786;2024-01-27T09:37:00;5.10;99.90
5392;DHT22;2719;53.624;9.786;2024-01-27T09:39:27;5.20;99.90
5392;DHT22;2719;53.624;9.786;2024-01-27T09:41:54;5.20;99.90
5392;DHT22;2719;53.624;9.786;2024-01-27T09:44:21;5.30;99.90
5392;DHT22;2719;53.624;9.786;2024-01-27T09:46:48;5.30;99.90
5392;DHT22;2719;53.624;9.786;2024-01-27T09:49:15;5.40;99.90
5392;DHT22;2719;53.624;9.786;2024-01-27T09:51:43;5.40;99.90
5392;DHT22;2719;53.624;9.786;2024-01-27T09:54:10;5.50;99.90
5392;DHT22;2719;53.624;9.786;2024-01-27T09:56:37;5.50;99.90
5392;DHT22;2719;53.624;9.786;2024-01-27T09:59:05;5.60;99.90
5392;DHT22;2719;53.624;9.786;2024-01-27T10:01:33;5.70;99.90
5392;DHT22;2719;53.624;9.786;2024-01-27T10:04:00;5.70;99.90
5392;DHT22;2719;53.624;9.786;2024-01-27T10:06:26;5.80;99.90
5392;DHT22;2719;53.624;9.786;2024-01-27T10:08:55;5.90;99.90
5392;DHT22;2719;53.624;9.786;2024-01-27T10:11:23;5.90;99.90
5392;DHT22;2719;53.624;9.786;2024-01-27T10:13:54;6.00;99.90
5392;DHT22;2719;53.624;9.786;2024-01-27T10:16:21;6.10;99.90
5392;DHT22;2719;53.624;9.786;2024-01-27T10:18:59;6.20;99.90
5392;DHT22;2719;53.624;9.786;2024-01-27T10:21:25;6.20;99.90
5392;DHT22;2719;53.624;9.786;2024-01-27T10:23:52;6.20;99.90
5392;DHT22;2719;53.624;9.786;2024-01-27T10:26:20;6.30;99.90
5392;DHT22;2719;53.624;9.786;2024-01-27T10:28:52;6.40;99.90
5392;DHT22;2719;53.624;9.786;2024-01-27T10:31:19;6.60;99.90
5392;DHT22;2719;53.624;9.786;2024-01-27T10:33:51;6.60;99.90
5392;DHT22;2719;53.624;9.786;2024-01-27T10:36:18;6.70;99.90
5392;DHT22;2719;53.624;9.786;2024-01-27T10:38:45;6.70;99.90
5392;DHT22;2719;53.624;9.786;2024-01-27T10:41:16;6.80;99.90
5392;DHT22;2719;53.624;9.786;2024-01-27T10:43:50;6.80;99.90
5392;DHT22;2719;53.624;9.786;2024-01-27T10:46:19;6.90;99.90
5392;DHT22;2719;53.624;9.786;2024-01-27T10:48:48;7.00;99.90
5392;DHT22;2719;53.624;9.786;2024-01-27T10:51:17;7.10;99.90
5392;DHT22;2719;53.624;9.786;2024-01-27T10:53:48;7.20;99.90
5392;DHT22;2719;53.624;9.786;2024-01-27T10:56:15;7.40;99.90
5392;DHT22;2719;53.624;9.786;2024-01-27T10:58:43;7.50;99.90
5392;DHT22;2719;53.624;9.786;2024-01-27T11:01:13;7.40;99.90
5392;DHT22;2719;53.624;9.786;2024-01-27T11:03:42;7.40;99.90
5392;DHT22;2719;53.624;9.786;2024-01-27T11:06:11;7.30;99.90
5392;DHT22;2719;53.624;9.786;2024-01-27T11:08:39;7.50;99.90
5392;DHT22;2719;53.624;9.786;2024-01-27T11:11:06;7.70;99.90
5392;DHT22;2719;53.624;9.786;2024-01-27T11:13:34;7.60;99.90
5392;DHT22;2719;53.624;9.786;2024-01-27T11:16:01;7.60;99.90
5392;DHT22;2719;53.624;9.786;2024-01-27T11:18:29;7.60;99.90
5392;DHT22;2719;53.624;9.786;2024-01-27T11:20:58;7.70;99.90
5392;DHT22;2719;53.624;9.786;2024-01-27T11:23:32;7.70;99.90
5392;DHT22;2719;53.624;9.786;2024-01-27T11:26:03;7.70;99.90
5392;DHT22;2719;53.624;9.786;2024-01-27T11:28:30;7.60;99.90
5392;DHT22;2719;53.624;9.786;2024-01-27T11:30:56;7.70;99.90
5392;DHT22;2719;53.624;9.786;2024-01-27T11:33:24;7.70;99.90
5392;DHT22;2719;53.624;9.786;2024-01-27T11:36:01;7.70;99.90
5392;DHT22;2719;53.624;9.786;2024-01-27T11:38:29;7.70;99.90
5392;DHT22;2719;53.624;9.786;2024-01-27T11:40:56;7.70;99.90
5392;DHT22;2719;53.624;9.786;2024-01-27T11:43:23;7.80;99.90
5392;DHT22;2719;53.624;9.786;2024-01-27T11:45:56;7.90;99.90
5392;DHT22;2719;53.624;9.786;2024-01-27T11:48:23;7.90;99.90
5392;DHT22;2719;53.624;9.786;2024-01-27T11:53:31;7.80;99.90
5392;DHT22;2719;53.624;9.786;2024-01-27T11:55:58;7.90;99.90
5392;DHT22;2719;53.624;9.786;2024-01-27T11:58:26;7.90;99.90
5392;DHT22;2719;53.624;9.786;2024-01-27T12:00:53;8.00;99.90
5392;DHT22;2719;53.624;9.786;2024-01-27T12:03:20;8.10;99.90
5392;DHT22;2719;53.624;9.786;2024-01-27T12:05:47;8.10;99.90
5392;DHT22;2719;53.624;9.786;2024-01-27T12:08:16;8.20;99.90
5392;DHT22;2719;53.624;9.786;2024-01-27T12:10:43;8.10;99.90
5392;DHT22;2719;53.624;9.786;2024-01-27T12:13:09;8.10;99.90
5392;DHT22;2719;53.624;9.786;2024-01-27T12:15:36;8.10;99.90
5392;DHT22;2719;53.624;9.786;2024-01-27T12:18:04;8.20;99.90
5392;DHT22;2719;53.624;9.786;2024-01-27T12:20:31;8.20;99.90
5392;DHT22;2719;53.624;9.786;2024-01-27T12:23:04;8.30;99.90
5392;DHT22;2719;53.624;9.786;2024-01-27T12:25:33;8.30;99.90
5392;DHT22;2719;53.624;9.786;2024-01-27T12:28:02;8.30;99.90
5392;DHT22;2719;53.624;9.786;2024-01-27T12:30:28;8.40;99.90
5392;DHT22;2719;53.624;9.786;2024-01-27T12:32:55;8.50;99.90
5392;DHT22;2719;53.624;9.786;2024-01-27T12:35:23;8.50;99.90
5392;DHT22;2719;53.624;9.786;2024-01-27T12:37:50;8.60;99.90
5392;DHT22;2719;53.624;9.786;2024-01-27T12:40:17;8.70;99.90
5392;DHT22;2719;53.624;9.786;2024-01-27T12:42:46;8.80;99.90
5392;DHT22;2719;53.624;9.786;2024-01-27T12:45:13;8.80;99.90
5392;DHT22;2719;53.624;9.786;2024-01-27T12:47:40;8.80;99.90
5392;DHT22;2719;53.624;9.786;2024-01-27T12:50:07;8.80;99.90
5392;DHT22;2719;53.624;9.786;2024-01-27T12:52:34;8.80;99.90
5392;DHT22;2719;53.624;9.786;2024-01-27T12:55:02;8.70;99.90
5392;DHT22;2719;53.624;9.786;2024-01-27T12:57:29;8.80;99.90
5392;DHT22;2719;53.624;9.786;2024-01-27T12:59:57;8.80;99.90
5392;DHT22;2719;53.624;9.786;2024-01-27T13:02:23;8.90;99.90
5392;DHT22;2719;53.624;9.786;2024-01-27T13:04:51;8.90;99.90
5392;DHT22;2719;53.624;9.786;2024-01-27T13:07:17;9.00;99.90
5392;DHT22;2719;53.624;9.786;2024-01-27T13:09:44;8.90;99.90
5392;DHT22;2719;53.624;9.786;2024-01-27T13:12:10;8.90;99.90
5392;DHT22;2719;53.624;9.786;2024-01-27T13:14:37;9.00;99.90
5392;DHT22;2719;53.624;9.786;2024-01-27T13:17:05;9.10;99.90
5392;DHT22;2719;53.624;9.786;2024-01-27T13:19:32;9.10;99.90
5392;DHT22;2719;53.624;9.786;2024-01-27T13:21:58;9.10;99.90
5392;DHT22;2719;53.624;9.786;2024-01-27T13:24:26;9.30;99.90
5392;DHT22;2719;53.624;9.786;2024-01-27T13:26:52;9.30;99.90
5392;DHT22;2719;53.624;9.786;2024-01-27T13:29:19;9.30;99.90
5392;DHT22;2719;53.624;9.786;2024-01-27T13:31:46;9.40;99.90
5392;DHT22;2719;53.624;9.786;2024-01-27T13:34:14;9.30;99.90
5392;DHT22;2719;53.624;9.786;2024-01-27T13:36:41;9.40;99.90
5392;DHT22;2719;53.624;9.786;2024-01-27T13:39:08;9.50;99.90
5392;DHT22;2719;53.624;9.786;2024-01-27T13:41:34;9.60;99.90
5392;DHT22;2719;53.624;9.786;2024-01-27T13:44:03;9.70;99.90
5392;DHT22;2719;53.624;9.786;2024-01-27T13:46:31;9.70;99.90
5392;DHT22;2719;53.624;9.786;2024-01-27T13:48:58;9.80;99.90
5392;DHT22;2719;53.624;9.786;2024-01-27T13:51:26;9.80;99.90
5392;DHT22;2719;53.624;9.786;2024-01-27T13:53:53;9.70;99.90
5392;DHT22;2719;53.624;9.786;2024-01-27T13:56:19;9.60;99.90
5392;DHT22;2719;53.624;9.786;2024-01-27T13:58:46;9.60;99.90
5392;DHT22;2719;53.624;9.786;2024-01-27T14:01:13;9.40;99.90
5392;DHT22;2719;53.624;9.786;2024-01-27T14:03:39;9.50;99.90
5392;DHT22;2719;53.624;9.786;2024-01-27T14:06:06;9.50;99.90
5392;DHT22;2719;53.624;9.786;2024-01-27T14:08:38;9.60;99.90
5392;DHT22;2719;53.624;9.786;2024-01-27T14:11:05;9.60;99.90
5392;DHT22;2719;53.624;9.786;2024-01-27T14:13:32;9.60;99.90
5392;DHT22;2719;53.624;9.786;2024-01-27T14:15:59;9.60;99.90
5392;DHT22;2719;53.624;9.786;2024-01-27T14:18:25;9.50;99.90
5392;DHT22;2719;53.624;9.786;2024-01-27T14:20:52;9.60;99.90
5392;DHT22;2719;53.624;9.786;2024-01-27T14:23:18;9.70;99.90
5392;DHT22;2719;53.624;9.786;2024-01-27T14:25:47;9.70;99.90
5392;DHT22;2719;53.624;9.786;2024-01-27T14:28:13;9.60;99.90
5392;DHT22;2719;53.624;9.786;2024-01-27T14:30:40;9.60;99.90
5392;DHT22;2719;53.624;9.786;2024-01-27T14:33:07;9.60;99.90
5392;DHT22;2719;53.624;9.786;2024-01-27T14:35:34;9.60;99.90
5392;DHT22;2719;53.624;9.786;2024-01-27T14:38:00;9.60;99.90
5392;DHT22;2719;53.624;9.786;2024-01-27T14:40:27;9.60;99.90
5392;DHT22;2719;53.624;9.786;2024-01-27T14:42:55;9.70;99.90
5392;DHT22;2719;53.624;9.786;2024-01-27T14:45:22;9.60;99.90
5392;DHT22;2719;53.624;9.786;2024-01-27T14:47:48;9.50;99.90
5392;DHT22;2719;53.624;9.786;2024-01-27T14:50:15;9.40;99.90
5392;DHT22;2719;53.624;9.786;2024-01-27T14:52:42;9.40;99.90
5392;DHT22;2719;53.624;9.786;2024-01-27T14:55:08;9.40;99.90
5392;DHT22;2719;53.624;9.786;2024-01-27T14:57:37;9.50;99.90
5392;DHT22;2719;53.624;9.786;2024-01-27T15:00:07;9.50;99.90
5392;DHT22;2719;53.624;9.786;2024-01-27T15:02:33;9.50;99.90
5392;DHT22;2719;53.624;9.786;2024-01-27T15:05:00;9.50;99.90
5392;DHT22;2719;53.624;9.786;2024-01-27T15:07:27;9.50;99.90
5392;DHT22;2719;53.624;9.786;2024-01-27T15:09:55;9.50;99.90
5392;DHT22;2719;53.624;9.786;2024-01-27T15:12:21;9.40;99.90
5392;DHT22;2719;53.624;9.786;2024-01-27T15:14:49;9.40;99.90
5392;DHT22;2719;53.624;9.786;2024-01-27T15:17:17;9.30;99.90
5392;DHT22;2719;53.624;9.786;2024-01-27T15:19:44;9.20;99.90
5392;DHT22;2719;53.624;9.786;2024-01-27T15:22:11;9.10;99.90
5392;DHT22;2719;53.624;9.786;2024-01-27T15:24:37;9.00;99.90
5392;DHT22;2719;53.624;9.786;2024-01-27T15:27:05;8.90;99.90
5392;DHT22;2719;53.624;9.786;2024-01-27T15:29:31;8.70;99.90
5392;DHT22;2719;53.624;9.786;2024-01-27T15:31:58;8.60;99.90
5392;DHT22;2719;53.624;9.786;2024-01-27T15:34:26;8.60;99.90
5392;DHT22;2719;53.624;9.786;2024-01-27T15:36:53;8.60;99.90
5392;DHT22;2719;53.624;9.786;2024-01-27T15:39:19;8.60;99.90
5392;DHT22;2719;53.624;9.786;2024-01-27T15:41:46;8.50;99.90
5392;DHT22;2719;53.624;9.786;2024-01-27T15:44:13;8.50;99.90
5392;DHT22;2719;53.624;9.786;2024-01-27T15:46:40;8.50;99.90
5392;DHT22;2719;53.624;9.786;2024-01-27T15:49:06;8.50;99.90
5392;DHT22;2719;53.624;9.786;2024-01-27T15:51:34;8.40;99.90
5392;DHT22;2719;53.624;9.786;2024-01-27T15:54:03;8.40;99.90
5392;DHT22;2719;53.624;9.786;2024-01-27T15:56:29;8.40;99.90
5392;DHT22;2719;53.624;9.786;2024-01-27T15:58:56;8.40;99.90
5392;DHT22;2719;53.624;9.786;2024-01-27T16:01:23;8.30;99.90
5392;DHT22;2719;53.624;9.786;2024-01-27T16:03:49;8.30;99.90
5392;DHT22;2719;53.624;9.786;2024-01-27T16:06:16;8.30;99.90
5392;DHT22;2719;53.624;9.786;2024-01-27T16:08:44;8.20;99.90
5392;DHT22;2719;53.624;9.786;2024-01-27T16:11:11;8.20;99.90
5392;DHT22;2719;53.624;9.786;2024-01-27T16:13:37;8.20;99.90
5392;DHT22;2719;53.624;9.786;2024-01-27T16:16:04;8.10;99.90
5392;DHT22;2719;53.624;9.786;2024-01-27T16:18:31;8.10;99.90